Flight Track Log - Related Links

Times and Time Zones

All times are in EDT time to prevent confusion due to time zone crossing. See the ASQ5678 flight status page for this flight to view local times or setup timezone preferences in your user account.

Time Position Orientation Groundspeed Altitude Reporting Facility
EDT Latitude Longitude Course Direction KTS MPH feet Rate Location/Type
Thu 03:31:00 PM 30.0427 -92.1842 227° Southwest  Level FlightAware Approximate
Thu 03:31:26 PM 30.2306 -92.0639 233° Southwest 276 318 6,100  Level Houston Center
Thu 03:32:00 PM 30.0005 -92.2560 231° Southwest  Level FlightAware Approximate
Thu 03:32:28 PM 30.1828 -92.1317 231° Southwest 275 316 8,400  Level Houston Center
Thu 03:33:00 PM 29.9508 -92.3256 231° Southwest  Level FlightAware Approximate
Thu 03:33:30 PM 30.1222 -92.2147 230° Southwest 276 318 10,100  Level Houston Center
Thu 03:34:00 PM 29.9037 -92.4057 249° West  Level FlightAware Approximate
Thu 03:34:32 PM 30.0644 -92.3003 232° Southwest 310 357 11,000  Level Houston Center
Thu 03:35:00 PM 29.8488 -92.4807 227° Southwest  Level FlightAware Approximate
Thu 03:35:34 PM 30.0742 -92.4092 276° West 338 389 12,100  Level Houston Center
Thu 03:36:37 PM 30.1028 -92.5144 287° West 345 397 13,300 1,200 Climbing Houston Center
Thu 03:37:39 PM 30.1331 -92.6203 288° West 347 399 14,600 1,355 Climbing Houston Center
Thu 03:38:41 PM 30.1697 -92.7467 289° West 346 398 16,100 1,258 Climbing Houston Center
Thu 03:39:43 PM 30.1986 -92.8533 287° West 348 400 17,200 871 Climbing Houston Center
Thu 03:40:45 PM 30.2075 -92.9642 275° West 346 398 17,900 387 Climbing Houston Center
Thu 03:41:47 PM 30.2067 -93.0828 270° West 364 419 18,000 48 Climbing Houston Center
Thu 03:42:49 PM 30.2064 -93.2094 270° West 383 441 18,000  Level Houston Center
Thu 03:43:52 PM 30.2053 -93.3392 269° West 396 456 18,000  Level Houston Center
Thu 03:44:54 PM 30.2047 -93.4706 270° West 401 461 18,000  Level Houston Center
Thu 03:45:56 PM 30.2050 -93.6031 270° West 404 465 18,000  Level Houston Center
Thu 03:46:58 PM 30.2036 -93.7583 269° West 398 458 18,000  Level Houston Center
Thu 03:48:00 PM 30.2025 -93.8850 269° West 394 453 18,000 -595 Level Houston Center
Thu 03:48:59 PM 30.2011 -94.0156 269° West 388 447 16,800 -1,588 Descending Houston Center
Thu 03:49:42 PM 30.2006 -94.0931 270° West 383 441 15,300 -1,515 Descending Houston Center
Thu 03:50:42 PM 30.1992 -94.2047 269° West 303 349 14,200 -1,537 Descending Houston Center
Thu 03:51:43 PM 30.1981 -94.2992 269° West 283 326 12,200 -1,475 Descending Houston Center
Thu 03:52:44 PM 30.1858 -94.3878 261° West 301 346 11,200 -1,180 Descending Houston Center
Thu 03:53:45 PM 30.1394 -94.4714 237° Southwest 288 331 9,800 -1,279 Descending Houston Center
Thu 03:54:46 PM 30.0858 -94.5458 230° Southwest 291 335 8,600 -885 Descending Houston Center
Thu 03:55:47 PM 30.0400 -94.6147 232° Southwest 279 321 8,000 -462 Descending Houston Center
Thu 03:56:17 PM 30.0356 -94.6506 262° West 277 319 7,900 -590 Descending Houston Center
Thu 03:56:48 PM 30.0231 -94.7014 254° West 272 313 7,400 -762 Descending Houston Center
Thu 03:57:20 PM 30.0181 -94.7347 260° West 272 313 7,100 -255 Descending Houston Center
Thu 03:58:22 PM 30.0053 -94.8189 260° West 268 308 7,000 -194 Descending Houston Center
Thu 03:59:24 PM 29.9917 -94.9194 261° West 267 307 6,700 -774 Descending Houston Center
Thu 04:00:26 PM 29.9939 -95.0036 272° West 264 304 5,400 -1,306 Descending Houston Center
Thu 04:01:28 PM 29.9936 -95.0861 270° West 261 300 4,000 -968 Descending Houston Center
Thu 04:02:30 PM 29.9936 -95.1561 270° West 232 267 3,400 -1,008 Descending Houston Center
Thu 04:03:33 PM 29.9936 -95.2156 270° West 203 234 1,900 -1,152 Descending Houston Center
Thu 04:04:35 PM 29.9936 -95.2778 270° West 179 206 1,000 -726 Descending Houston Center
Thu 04:05:37 PM 29.9942 -95.3244 271° West 158 182 400 -581 Descending Houston Center

Login

Don't have an account? Register now (free) for customized features, flight alerts, and more!